sensor_id;sensor_type;location;lat;lon;timestamp;P1;durP1;ratioP1;P2;durP2;ratioP2
5149;SDS011;2593;52.466;13.436;2023-05-20T00:00:10;9.70;;;4.03;;
5149;SDS011;2593;52.466;13.436;2023-05-20T00:02:36;5.60;;;3.47;;
5149;SDS011;2593;52.466;13.436;2023-05-20T00:05:02;7.63;;;4.00;;
5149;SDS011;2593;52.466;13.436;2023-05-20T00:07:28;6.20;;;3.77;;
5149;SDS011;2593;52.466;13.436;2023-05-20T00:09:55;13.30;;;3.30;;
5149;SDS011;2593;52.466;13.436;2023-05-20T00:12:21;5.20;;;3.97;;
5149;SDS011;2593;52.466;13.436;2023-05-20T00:14:47;8.20;;;4.47;;
5149;SDS011;2593;52.466;13.436;2023-05-20T00:17:13;8.83;;;3.50;;
5149;SDS011;2593;52.466;13.436;2023-05-20T00:19:39;12.03;;;4.70;;
5149;SDS011;2593;52.466;13.436;2023-05-20T00:22:05;10.50;;;4.10;;
5149;SDS011;2593;52.466;13.436;2023-05-20T00:24:31;9.57;;;5.00;;
5149;SDS011;2593;52.466;13.436;2023-05-20T00:26:57;18.70;;;3.97;;
5149;SDS011;2593;52.466;13.436;2023-05-20T00:29:23;4.27;;;3.87;;
5149;SDS011;2593;52.466;13.436;2023-05-20T00:31:49;9.40;;;3.97;;
5149;SDS011;2593;52.466;13.436;2023-05-20T00:34:15;3.80;;;3.37;;
5149;SDS011;2593;52.466;13.436;2023-05-20T00:36:41;6.53;;;4.33;;
5149;SDS011;2593;52.466;13.436;2023-05-20T00:39:07;4.90;;;3.30;;
5149;SDS011;2593;52.466;13.436;2023-05-20T00:41:33;4.70;;;4.13;;
5149;SDS011;2593;52.466;13.436;2023-05-20T00:44:00;8.50;;;4.13;;
5149;SDS011;2593;52.466;13.436;2023-05-20T00:46:26;9.93;;;4.77;;
5149;SDS011;2593;52.466;13.436;2023-05-20T00:48:53;9.20;;;4.33;;
5149;SDS011;2593;52.466;13.436;2023-05-20T00:51:19;4.70;;;3.37;;
5149;SDS011;2593;52.466;13.436;2023-05-20T00:53:46;7.43;;;3.57;;
5149;SDS011;2593;52.466;13.436;2023-05-20T00:56:12;6.50;;;4.23;;
5149;SDS011;2593;52.466;13.436;2023-05-20T00:58:38;6.67;;;4.17;;
5149;SDS011;2593;52.466;13.436;2023-05-20T01:01:04;16.13;;;11.33;;
5149;SDS011;2593;52.466;13.436;2023-05-20T01:03:31;7.70;;;4.43;;
5149;SDS011;2593;52.466;13.436;2023-05-20T01:05:57;7.47;;;4.70;;
5149;SDS011;2593;52.466;13.436;2023-05-20T01:08:24;5.93;;;4.27;;
5149;SDS011;2593;52.466;13.436;2023-05-20T01:10:54;5.33;;;3.43;;
5149;SDS011;2593;52.466;13.436;2023-05-20T01:13:23;5.97;;;4.40;;
5149;SDS011;2593;52.466;13.436;2023-05-20T01:15:53;9.70;;;4.50;;
5149;SDS011;2593;52.466;13.436;2023-05-20T01:18:20;7.23;;;4.07;;
5149;SDS011;2593;52.466;13.436;2023-05-20T01:20:49;12.60;;;3.97;;
5149;SDS011;2593;52.466;13.436;2023-05-20T01:23:15;15.00;;;4.27;;
5149;SDS011;2593;52.466;13.436;2023-05-20T01:25:42;15.70;;;4.57;;
5149;SDS011;2593;52.466;13.436;2023-05-20T01:28:08;6.67;;;4.23;;
5149;SDS011;2593;52.466;13.436;2023-05-20T01:30:36;9.80;;;4.77;;
5149;SDS011;2593;52.466;13.436;2023-05-20T01:33:08;4.73;;;3.30;;
5149;SDS011;2593;52.466;13.436;2023-05-20T01:35:35;5.17;;;3.80;;
5149;SDS011;2593;52.466;13.436;2023-05-20T01:38:03;9.93;;;4.00;;
5149;SDS011;2593;52.466;13.436;2023-05-20T01:40:30;6.87;;;5.00;;
5149;SDS011;2593;52.466;13.436;2023-05-20T01:42:57;5.80;;;4.50;;
5149;SDS011;2593;52.466;13.436;2023-05-20T01:45:24;8.30;;;4.63;;
5149;SDS011;2593;52.466;13.436;2023-05-20T01:47:50;7.20;;;3.90;;
5149;SDS011;2593;52.466;13.436;2023-05-20T01:50:16;12.17;;;5.20;;
5149;SDS011;2593;52.466;13.436;2023-05-20T01:52:43;6.17;;;4.50;;
5149;SDS011;2593;52.466;13.436;2023-05-20T01:55:09;5.20;;;4.67;;
5149;SDS011;2593;52.466;13.436;2023-05-20T01:57:35;6.57;;;4.47;;
5149;SDS011;2593;52.466;13.436;2023-05-20T02:00:01;8.70;;;4.20;;
5149;SDS011;2593;52.466;13.436;2023-05-20T02:02:27;9.40;;;4.20;;
5149;SDS011;2593;52.466;13.436;2023-05-20T02:04:53;8.03;;;3.80;;
5149;SDS011;2593;52.466;13.436;2023-05-20T02:07:20;8.40;;;4.30;;
5149;SDS011;2593;52.466;13.436;2023-05-20T02:09:46;7.70;;;4.67;;
5149;SDS011;2593;52.466;13.436;2023-05-20T02:12:12;6.00;;;4.30;;
5149;SDS011;2593;52.466;13.436;2023-05-20T02:14:42;7.30;;;4.37;;
5149;SDS011;2593;52.466;13.436;2023-05-20T02:17:09;9.13;;;4.57;;
5149;SDS011;2593;52.466;13.436;2023-05-20T02:19:35;13.57;;;5.27;;
5149;SDS011;2593;52.466;13.436;2023-05-20T02:22:01;6.20;;;4.07;;
5149;SDS011;2593;52.466;13.436;2023-05-20T02:24:27;10.70;;;4.13;;
5149;SDS011;2593;52.466;13.436;2023-05-20T02:26:54;7.57;;;4.33;;
5149;SDS011;2593;52.466;13.436;2023-05-20T02:29:21;7.50;;;4.10;;
5149;SDS011;2593;52.466;13.436;2023-05-20T02:31:47;7.50;;;3.80;;
5149;SDS011;2593;52.466;13.436;2023-05-20T02:34:14;7.97;;;5.23;;
5149;SDS011;2593;52.466;13.436;2023-05-20T02:36:40;8.80;;;4.73;;
5149;SDS011;2593;52.466;13.436;2023-05-20T02:39:06;4.83;;;3.90;;
5149;SDS011;2593;52.466;13.436;2023-05-20T02:41:32;8.50;;;3.77;;
5149;SDS011;2593;52.466;13.436;2023-05-20T02:43:58;9.10;;;4.60;;
5149;SDS011;2593;52.466;13.436;2023-05-20T02:46:24;7.10;;;4.20;;
5149;SDS011;2593;52.466;13.436;2023-05-20T02:48:50;5.27;;;4.27;;
5149;SDS011;2593;52.466;13.436;2023-05-20T02:51:16;22.43;;;13.47;;
5149;SDS011;2593;52.466;13.436;2023-05-20T02:53:42;9.70;;;4.87;;
5149;SDS011;2593;52.466;13.436;2023-05-20T02:56:09;8.63;;;5.10;;
5149;SDS011;2593;52.466;13.436;2023-05-20T02:58:35;7.70;;;4.13;;
5149;SDS011;2593;52.466;13.436;2023-05-20T03:01:01;13.33;;;4.70;;
5149;SDS011;2593;52.466;13.436;2023-05-20T03:03:27;8.10;;;4.30;;
5149;SDS011;2593;52.466;13.436;2023-05-20T03:05:53;8.03;;;3.93;;
5149;SDS011;2593;52.466;13.436;2023-05-20T03:08:20;8.93;;;4.33;;
5149;SDS011;2593;52.466;13.436;2023-05-20T03:10:46;6.13;;;4.87;;
5149;SDS011;2593;52.466;13.436;2023-05-20T03:13:13;7.63;;;4.17;;
5149;SDS011;2593;52.466;13.436;2023-05-20T03:15:39;13.33;;;5.10;;
5149;SDS011;2593;52.466;13.436;2023-05-20T03:18:06;8.40;;;3.80;;
5149;SDS011;2593;52.466;13.436;2023-05-20T03:20:35;5.73;;;3.70;;
5149;SDS011;2593;52.466;13.436;2023-05-20T03:23:02;12.60;;;5.20;;
5149;SDS011;2593;52.466;13.436;2023-05-20T03:25:28;9.73;;;4.33;;
5149;SDS011;2593;52.466;13.436;2023-05-20T03:27:55;8.90;;;4.83;;
5149;SDS011;2593;52.466;13.436;2023-05-20T03:30:24;8.17;;;4.40;;
5149;SDS011;2593;52.466;13.436;2023-05-20T03:32:50;13.33;;;4.50;;
5149;SDS011;2593;52.466;13.436;2023-05-20T03:35:16;12.40;;;4.53;;
5149;SDS011;2593;52.466;13.436;2023-05-20T03:37:42;7.97;;;4.20;;
5149;SDS011;2593;52.466;13.436;2023-05-20T03:40:08;8.20;;;4.70;;
5149;SDS011;2593;52.466;13.436;2023-05-20T03:42:35;8.90;;;4.73;;
5149;SDS011;2593;52.466;13.436;2023-05-20T03:45:01;6.17;;;3.77;;
5149;SDS011;2593;52.466;13.436;2023-05-20T03:47:27;9.00;;;4.50;;
5149;SDS011;2593;52.466;13.436;2023-05-20T03:49:53;7.23;;;4.90;;
5149;SDS011;2593;52.466;13.436;2023-05-20T03:52:20;10.10;;;5.10;;
5149;SDS011;2593;52.466;13.436;2023-05-20T03:54:46;8.50;;;4.50;;
5149;SDS011;2593;52.466;13.436;2023-05-20T03:57:12;11.80;;;5.10;;
5149;SDS011;2593;52.466;13.436;2023-05-20T03:59:38;6.30;;;4.27;;
5149;SDS011;2593;52.466;13.436;2023-05-20T04:02:04;5.33;;;4.60;;
5149;SDS011;2593;52.466;13.436;2023-05-20T04:04:30;8.20;;;4.50;;
5149;SDS011;2593;52.466;13.436;2023-05-20T04:06:57;5.73;;;4.90;;
5149;SDS011;2593;52.466;13.436;2023-05-20T04:09:27;9.70;;;5.20;;
5149;SDS011;2593;52.466;13.436;2023-05-20T04:11:53;15.33;;;5.43;;
5149;SDS011;2593;52.466;13.436;2023-05-20T04:14:19;13.63;;;5.70;;
5149;SDS011;2593;52.466;13.436;2023-05-20T04:16:45;9.87;;;4.80;;
5149;SDS011;2593;52.466;13.436;2023-05-20T04:19:11;13.53;;;4.90;;
5149;SDS011;2593;52.466;13.436;2023-05-20T04:21:37;13.07;;;6.57;;
5149;SDS011;2593;52.466;13.436;2023-05-20T04:24:03;19.90;;;5.43;;
5149;SDS011;2593;52.466;13.436;2023-05-20T04:26:30;10.57;;;4.83;;
5149;SDS011;2593;52.466;13.436;2023-05-20T04:28:57;11.43;;;5.10;;
5149;SDS011;2593;52.466;13.436;2023-05-20T04:31:25;9.80;;;6.10;;
5149;SDS011;2593;52.466;13.436;2023-05-20T04:33:52;7.80;;;4.77;;
5149;SDS011;2593;52.466;13.436;2023-05-20T04:36:18;6.00;;;5.00;;
5149;SDS011;2593;52.466;13.436;2023-05-20T04:38:44;6.73;;;5.37;;
5149;SDS011;2593;52.466;13.436;2023-05-20T04:41:12;11.97;;;5.97;;
5149;SDS011;2593;52.466;13.436;2023-05-20T04:43:39;11.03;;;5.97;;
5149;SDS011;2593;52.466;13.436;2023-05-20T04:46:06;9.80;;;5.90;;
5149;SDS011;2593;52.466;13.436;2023-05-20T04:48:33;10.27;;;5.50;;
5149;SDS011;2593;52.466;13.436;2023-05-20T04:50:59;8.90;;;5.80;;
5149;SDS011;2593;52.466;13.436;2023-05-20T04:53:26;13.50;;;7.10;;
5149;SDS011;2593;52.466;13.436;2023-05-20T04:55:55;11.73;;;5.60;;
5149;SDS011;2593;52.466;13.436;2023-05-20T04:58:21;6.40;;;5.00;;
5149;SDS011;2593;52.466;13.436;2023-05-20T05:00:51;8.80;;;5.57;;
5149;SDS011;2593;52.466;13.436;2023-05-20T05:03:17;10.03;;;4.97;;
5149;SDS011;2593;52.466;13.436;2023-05-20T05:05:43;10.03;;;5.70;;
5149;SDS011;2593;52.466;13.436;2023-05-20T05:08:09;11.80;;;6.67;;
5149;SDS011;2593;52.466;13.436;2023-05-20T05:10:35;8.20;;;5.63;;
5149;SDS011;2593;52.466;13.436;2023-05-20T05:13:02;10.00;;;6.43;;
5149;SDS011;2593;52.466;13.436;2023-05-20T05:15:28;16.20;;;6.00;;
5149;SDS011;2593;52.466;13.436;2023-05-20T05:17:55;12.37;;;5.17;;
5149;SDS011;2593;52.466;13.436;2023-05-20T05:20:21;7.93;;;5.83;;
5149;SDS011;2593;52.466;13.436;2023-05-20T05:22:47;11.73;;;6.00;;
5149;SDS011;2593;52.466;13.436;2023-05-20T05:25:14;20.53;;;6.63;;
5149;SDS011;2593;52.466;13.436;2023-05-20T05:27:41;33.23;;;9.20;;
5149;SDS011;2593;52.466;13.436;2023-05-20T05:30:08;20.50;;;6.33;;
5149;SDS011;2593;52.466;13.436;2023-05-20T05:32:35;10.90;;;7.00;;
5149;SDS011;2593;52.466;13.436;2023-05-20T05:35:02;16.93;;;7.03;;
5149;SDS011;2593;52.466;13.436;2023-05-20T05:37:28;8.80;;;5.07;;
5149;SDS011;2593;52.466;13.436;2023-05-20T05:39:54;13.33;;;5.87;;
5149;SDS011;2593;52.466;13.436;2023-05-20T05:42:21;17.97;;;5.90;;
5149;SDS011;2593;52.466;13.436;2023-05-20T05:44:47;15.60;;;5.80;;
5149;SDS011;2593;52.466;13.436;2023-05-20T05:47:13;10.20;;;6.40;;
5149;SDS011;2593;52.466;13.436;2023-05-20T05:49:39;22.97;;;7.20;;
5149;SDS011;2593;52.466;13.436;2023-05-20T05:52:05;11.00;;;6.80;;
5149;SDS011;2593;52.466;13.436;2023-05-20T05:54:31;8.10;;;6.83;;
5149;SDS011;2593;52.466;13.436;2023-05-20T05:56:57;16.43;;;7.13;;
5149;SDS011;2593;52.466;13.436;2023-05-20T05:59:24;16.80;;;6.90;;
5149;SDS011;2593;52.466;13.436;2023-05-20T06:01:50;13.63;;;6.77;;
5149;SDS011;2593;52.466;13.436;2023-05-20T06:04:16;10.40;;;6.30;;
5149;SDS011;2593;52.466;13.436;2023-05-20T06:06:42;12.80;;;6.73;;
5149;SDS011;2593;52.466;13.436;2023-05-20T06:09:08;14.57;;;5.90;;
5149;SDS011;2593;52.466;13.436;2023-05-20T06:11:34;14.13;;;6.60;;
5149;SDS011;2593;52.466;13.436;2023-05-20T06:14:00;19.13;;;6.83;;
5149;SDS011;2593;52.466;13.436;2023-05-20T06:16:26;12.90;;;6.90;;
5149;SDS011;2593;52.466;13.436;2023-05-20T06:18:52;12.30;;;6.80;;
5149;SDS011;2593;52.466;13.436;2023-05-20T06:21:21;20.60;;;7.70;;
5149;SDS011;2593;52.466;13.436;2023-05-20T06:23:47;14.73;;;6.13;;
5149;SDS011;2593;52.466;13.436;2023-05-20T06:26:13;9.80;;;7.10;;
5149;SDS011;2593;52.466;13.436;2023-05-20T06:28:39;20.57;;;7.43;;
5149;SDS011;2593;52.466;13.436;2023-05-20T06:31:05;11.87;;;6.60;;
5149;SDS011;2593;52.466;13.436;2023-05-20T06:33:32;9.67;;;7.00;;
5149;SDS011;2593;52.466;13.436;2023-05-20T06:35:58;13.23;;;6.57;;
5149;SDS011;2593;52.466;13.436;2023-05-20T06:38:25;14.73;;;7.70;;
5149;SDS011;2593;52.466;13.436;2023-05-20T06:40:51;17.87;;;7.20;;
5149;SDS011;2593;52.466;13.436;2023-05-20T06:43:18;14.80;;;7.57;;
5149;SDS011;2593;52.466;13.436;2023-05-20T06:45:44;16.57;;;6.90;;
5149;SDS011;2593;52.466;13.436;2023-05-20T06:48:10;21.23;;;7.63;;
5149;SDS011;2593;52.466;13.436;2023-05-20T06:50:36;10.80;;;7.00;;
5149;SDS011;2593;52.466;13.436;2023-05-20T06:53:02;14.73;;;7.40;;
5149;SDS011;2593;52.466;13.436;2023-05-20T06:55:29;9.67;;;6.67;;
5149;SDS011;2593;52.466;13.436;2023-05-20T06:57:55;10.83;;;7.53;;
5149;SDS011;2593;52.466;13.436;2023-05-20T07:00:21;15.97;;;8.07;;
5149;SDS011;2593;52.466;13.436;2023-05-20T07:02:47;10.73;;;6.90;;
5149;SDS011;2593;52.466;13.436;2023-05-20T07:05:13;7.90;;;6.40;;
5149;SDS011;2593;52.466;13.436;2023-05-20T07:07:39;15.23;;;6.90;;
5149;SDS011;2593;52.466;13.436;2023-05-20T07:10:05;15.33;;;7.10;;
5149;SDS011;2593;52.466;13.436;2023-05-20T07:12:32;12.47;;;7.33;;
5149;SDS011;2593;52.466;13.436;2023-05-20T07:14:58;11.70;;;6.53;;
5149;SDS011;2593;52.466;13.436;2023-05-20T07:17:24;10.73;;;6.20;;
5149;SDS011;2593;52.466;13.436;2023-05-20T07:19:51;11.03;;;7.10;;
5149;SDS011;2593;52.466;13.436;2023-05-20T07:22:17;9.20;;;6.47;;
5149;SDS011;2593;52.466;13.436;2023-05-20T07:24:43;13.73;;;6.80;;
5149;SDS011;2593;52.466;13.436;2023-05-20T07:27:09;8.60;;;6.20;;
5149;SDS011;2593;52.466;13.436;2023-05-20T07:29:35;14.10;;;7.17;;
5149;SDS011;2593;52.466;13.436;2023-05-20T07:32:01;9.40;;;5.13;;
5149;SDS011;2593;52.466;13.436;2023-05-20T07:34:28;14.30;;;6.77;;
5149;SDS011;2593;52.466;13.436;2023-05-20T07:36:54;15.57;;;5.93;;
5149;SDS011;2593;52.466;13.436;2023-05-20T07:39:21;11.73;;;6.50;;
5149;SDS011;2593;52.466;13.436;2023-05-20T07:41:47;21.97;;;7.80;;
5149;SDS011;2593;52.466;13.436;2023-05-20T07:44:13;14.00;;;6.70;;
5149;SDS011;2593;52.466;13.436;2023-05-20T07:46:40;11.03;;;6.60;;
5149;SDS011;2593;52.466;13.436;2023-05-20T07:49:06;11.30;;;6.20;;
5149;SDS011;2593;52.466;13.436;2023-05-20T07:51:32;9.93;;;5.97;;
5149;SDS011;2593;52.466;13.436;2023-05-20T07:53:58;9.97;;;6.20;;
5149;SDS011;2593;52.466;13.436;2023-05-20T07:56:24;18.27;;;6.80;;
5149;SDS011;2593;52.466;13.436;2023-05-20T07:58:51;13.23;;;7.20;;
5149;SDS011;2593;52.466;13.436;2023-05-20T08:01:18;9.10;;;6.30;;
5149;SDS011;2593;52.466;13.436;2023-05-20T08:03:44;8.63;;;5.63;;
5149;SDS011;2593;52.466;13.436;2023-05-20T08:06:10;12.20;;;6.40;;
5149;SDS011;2593;52.466;13.436;2023-05-20T08:08:36;15.90;;;7.13;;
5149;SDS011;2593;52.466;13.436;2023-05-20T08:11:04;8.60;;;6.00;;
5149;SDS011;2593;52.466;13.436;2023-05-20T08:13:30;8.63;;;5.90;;
5149;SDS011;2593;52.466;13.436;2023-05-20T08:15:56;12.10;;;6.07;;
5149;SDS011;2593;52.466;13.436;2023-05-20T08:18:23;11.33;;;6.07;;
5149;SDS011;2593;52.466;13.436;2023-05-20T08:20:49;6.30;;;4.70;;
5149;SDS011;2593;52.466;13.436;2023-05-20T08:23:15;12.70;;;5.87;;
5149;SDS011;2593;52.466;13.436;2023-05-20T08:25:41;6.90;;;6.13;;
5149;SDS011;2593;52.466;13.436;2023-05-20T08:28:10;9.70;;;6.00;;
5149;SDS011;2593;52.466;13.436;2023-05-20T08:30:36;21.20;;;6.20;;
5149;SDS011;2593;52.466;13.436;2023-05-20T08:33:02;10.33;;;5.97;;
5149;SDS011;2593;52.466;13.436;2023-05-20T08:35:28;11.13;;;6.00;;
5149;SDS011;2593;52.466;13.436;2023-05-20T08:37:55;12.50;;;6.80;;
5149;SDS011;2593;52.466;13.436;2023-05-20T08:40:21;6.70;;;6.03;;
5149;SDS011;2593;52.466;13.436;2023-05-20T08:42:48;15.23;;;7.17;;
5149;SDS011;2593;52.466;13.436;2023-05-20T08:45:17;10.80;;;7.00;;
5149;SDS011;2593;52.466;13.436;2023-05-20T08:47:43;13.27;;;6.60;;
5149;SDS011;2593;52.466;13.436;2023-05-20T08:50:10;10.93;;;6.10;;
5149;SDS011;2593;52.466;13.436;2023-05-20T08:52:37;6.77;;;5.53;;
5149;SDS011;2593;52.466;13.436;2023-05-20T08:55:08;14.97;;;6.67;;
5149;SDS011;2593;52.466;13.436;2023-05-20T08:57:36;8.13;;;5.80;;
5149;SDS011;2593;52.466;13.436;2023-05-20T09:00:03;10.27;;;6.07;;
5149;SDS011;2593;52.466;13.436;2023-05-20T09:02:36;10.43;;;6.73;;
5149;SDS011;2593;52.466;13.436;2023-05-20T09:05:02;13.10;;;7.63;;
5149;SDS011;2593;52.466;13.436;2023-05-20T09:07:29;9.27;;;6.03;;
5149;SDS011;2593;52.466;13.436;2023-05-20T09:09:55;9.87;;;6.30;;
5149;SDS011;2593;52.466;13.436;2023-05-20T09:12:21;10.30;;;6.00;;
5149;SDS011;2593;52.466;13.436;2023-05-20T09:14:47;10.60;;;6.70;;
5149;SDS011;2593;52.466;13.436;2023-05-20T09:17:14;8.77;;;6.20;;
5149;SDS011;2593;52.466;13.436;2023-05-20T09:19:41;13.40;;;7.00;;
5149;SDS011;2593;52.466;13.436;2023-05-20T09:22:07;12.43;;;7.60;;
5149;SDS011;2593;52.466;13.436;2023-05-20T09:24:33;12.07;;;7.60;;
5149;SDS011;2593;52.466;13.436;2023-05-20T09:26:59;10.13;;;6.73;;
5149;SDS011;2593;52.466;13.436;2023-05-20T09:29:25;9.63;;;6.63;;
5149;SDS011;2593;52.466;13.436;2023-05-20T09:31:51;12.97;;;7.77;;
5149;SDS011;2593;52.466;13.436;2023-05-20T09:34:20;13.63;;;9.40;;
5149;SDS011;2593;52.466;13.436;2023-05-20T09:36:48;12.70;;;9.10;;
5149;SDS011;2593;52.466;13.436;2023-05-20T09:39:15;15.50;;;8.90;;
5149;SDS011;2593;52.466;13.436;2023-05-20T09:42:00;13.40;;;9.03;;
5149;SDS011;2593;52.466;13.436;2023-05-20T09:44:28;13.57;;;10.10;;
5149;SDS011;2593;52.466;13.436;2023-05-20T09:46:55;15.73;;;9.23;;
5149;SDS011;2593;52.466;13.436;2023-05-20T09:49:21;16.83;;;8.80;;
5149;SDS011;2593;52.466;13.436;2023-05-20T09:51:48;15.50;;;9.00;;
5149;SDS011;2593;52.466;13.436;2023-05-20T09:54:17;20.03;;;10.10;;
5149;SDS011;2593;52.466;13.436;2023-05-20T09:56:43;16.00;;;9.37;;
5149;SDS011;2593;52.466;13.436;2023-05-20T09:59:09;14.87;;;8.80;;
5149;SDS011;2593;52.466;13.436;2023-05-20T10:01:36;16.07;;;9.37;;
5149;SDS011;2593;52.466;13.436;2023-05-20T10:04:03;15.23;;;9.00;;
5149;SDS011;2593;52.466;13.436;2023-05-20T10:11:51;22.17;;;9.60;;
5149;SDS011;2593;52.466;13.436;2023-05-20T10:14:28;15.30;;;9.13;;
5149;SDS011;2593;52.466;13.436;2023-05-20T10:19:41;19.20;;;8.73;;
5149;SDS011;2593;52.466;13.436;2023-05-20T10:22:09;17.27;;;10.10;;
5149;SDS011;2593;52.466;13.436;2023-05-20T10:24:39;15.00;;;10.23;;
5149;SDS011;2593;52.466;13.436;2023-05-20T10:27:09;15.10;;;10.13;;
5149;SDS011;2593;52.466;13.436;2023-05-20T10:29:51;14.60;;;9.80;;
5149;SDS011;2593;52.466;13.436;2023-05-20T10:32:24;14.30;;;9.77;;
5149;SDS011;2593;52.466;13.436;2023-05-20T10:34:50;14.63;;;10.07;;
5149;SDS011;2593;52.466;13.436;2023-05-20T10:37:23;27.73;;;10.10;;
5149;SDS011;2593;52.466;13.436;2023-05-20T10:39:50;15.10;;;9.47;;
5149;SDS011;2593;52.466;13.436;2023-05-20T10:42:16;14.33;;;9.47;;
5149;SDS011;2593;52.466;13.436;2023-05-20T10:44:52;16.90;;;10.37;;
5149;SDS011;2593;52.466;13.436;2023-05-20T10:47:18;16.90;;;10.13;;
5149;SDS011;2593;52.466;13.436;2023-05-20T10:49:44;14.07;;;9.80;;
5149;SDS011;2593;52.466;13.436;2023-05-20T10:52:15;19.40;;;8.90;;
5149;SDS011;2593;52.466;13.436;2023-05-20T10:54:42;12.93;;;9.80;;
5149;SDS011;2593;52.466;13.436;2023-05-20T10:57:09;17.27;;;10.63;;
5149;SDS011;2593;52.466;13.436;2023-05-20T10:59:35;16.60;;;10.10;;
5149;SDS011;2593;52.466;13.436;2023-05-20T11:02:02;15.70;;;9.67;;
5149;SDS011;2593;52.466;13.436;2023-05-20T11:04:28;18.73;;;9.30;;
5149;SDS011;2593;52.466;13.436;2023-05-20T11:06:55;12.90;;;9.70;;
5149;SDS011;2593;52.466;13.436;2023-05-20T11:09:22;17.70;;;9.53;;
5149;SDS011;2593;52.466;13.436;2023-05-20T11:11:49;17.00;;;10.20;;
5149;SDS011;2593;52.466;13.436;2023-05-20T11:14:15;16.50;;;10.90;;
5149;SDS011;2593;52.466;13.436;2023-05-20T11:16:44;16.73;;;10.23;;
5149;SDS011;2593;52.466;13.436;2023-05-20T11:19:16;14.57;;;9.70;;
5149;SDS011;2593;52.466;13.436;2023-05-20T11:21:45;23.43;;;9.57;;
5149;SDS011;2593;52.466;13.436;2023-05-20T11:24:11;14.43;;;9.60;;
5149;SDS011;2593;52.466;13.436;2023-05-20T11:26:38;21.20;;;9.60;;
5149;SDS011;2593;52.466;13.436;2023-05-20T11:29:04;14.20;;;9.57;;
5149;SDS011;2593;52.466;13.436;2023-05-20T11:31:30;16.30;;;10.00;;
5149;SDS011;2593;52.466;13.436;2023-05-20T11:33:59;17.13;;;9.87;;
5149;SDS011;2593;52.466;13.436;2023-05-20T11:36:26;14.10;;;9.23;;
5149;SDS011;2593;52.466;13.436;2023-05-20T11:38:53;18.90;;;11.00;;
5149;SDS011;2593;52.466;13.436;2023-05-20T11:41:26;21.57;;;10.60;;
5149;SDS011;2593;52.466;13.436;2023-05-20T11:43:58;14.43;;;8.83;;
5149;SDS011;2593;52.466;13.436;2023-05-20T11:46:24;22.37;;;11.20;;
5149;SDS011;2593;52.466;13.436;2023-05-20T11:48:54;24.03;;;10.00;;
5149;SDS011;2593;52.466;13.436;2023-05-20T11:51:23;13.63;;;9.50;;
5149;SDS011;2593;52.466;13.436;2023-05-20T11:53:50;18.80;;;10.73;;
5149;SDS011;2593;52.466;13.436;2023-05-20T11:56:16;16.20;;;9.30;;
5149;SDS011;2593;52.466;13.436;2023-05-20T11:58:42;19.90;;;10.43;;
5149;SDS011;2593;52.466;13.436;2023-05-20T12:01:09;16.83;;;11.87;;
5149;SDS011;2593;52.466;13.436;2023-05-20T12:03:35;21.23;;;10.33;;
5149;SDS011;2593;52.466;13.436;2023-05-20T12:06:02;26.30;;;9.90;;
5149;SDS011;2593;52.466;13.436;2023-05-20T12:08:28;16.73;;;10.00;;
5149;SDS011;2593;52.466;13.436;2023-05-20T12:10:55;19.70;;;10.67;;
5149;SDS011;2593;52.466;13.436;2023-05-20T12:13:21;16.37;;;10.47;;
5149;SDS011;2593;52.466;13.436;2023-05-20T12:15:47;11.40;;;9.00;;
5149;SDS011;2593;52.466;13.436;2023-05-20T12:18:13;16.23;;;10.63;;
5149;SDS011;2593;52.466;13.436;2023-05-20T12:20:41;14.20;;;9.30;;
5149;SDS011;2593;52.466;13.436;2023-05-20T12:23:07;16.00;;;10.53;;
5149;SDS011;2593;52.466;13.436;2023-05-20T12:25:33;16.80;;;10.70;;
5149;SDS011;2593;52.466;13.436;2023-05-20T12:28:00;17.20;;;10.13;;
5149;SDS011;2593;52.466;13.436;2023-05-20T12:30:26;14.93;;;9.90;;
5149;SDS011;2593;52.466;13.436;2023-05-20T12:32:52;16.80;;;11.63;;
5149;SDS011;2593;52.466;13.436;2023-05-20T12:35:40;20.20;;;11.33;;
5149;SDS011;2593;52.466;13.436;2023-05-20T12:38:05;14.30;;;10.10;;
5149;SDS011;2593;52.466;13.436;2023-05-20T12:40:31;31.70;;;12.53;;
5149;SDS011;2593;52.466;13.436;2023-05-20T12:42:59;16.80;;;10.47;;
5149;SDS011;2593;52.466;13.436;2023-05-20T12:45:25;13.13;;;10.37;;
5149;SDS011;2593;52.466;13.436;2023-05-20T12:47:51;17.53;;;9.67;;
5149;SDS011;2593;52.466;13.436;2023-05-20T12:50:17;14.80;;;10.20;;
5149;SDS011;2593;52.466;13.436;2023-05-20T12:52:43;21.40;;;11.97;;
5149;SDS011;2593;52.466;13.436;2023-05-20T12:55:09;14.53;;;9.90;;
5149;SDS011;2593;52.466;13.436;2023-05-20T12:57:40;15.73;;;9.73;;
5149;SDS011;2593;52.466;13.436;2023-05-20T13:00:08;17.30;;;10.73;;
5149;SDS011;2593;52.466;13.436;2023-05-20T13:02:38;20.20;;;10.23;;
5149;SDS011;2593;52.466;13.436;2023-05-20T13:05:05;23.93;;;10.87;;
5149;SDS011;2593;52.466;13.436;2023-05-20T13:07:31;14.10;;;9.90;;
5149;SDS011;2593;52.466;13.436;2023-05-20T13:09:58;23.23;;;9.70;;
5149;SDS011;2593;52.466;13.436;2023-05-20T13:12:24;18.47;;;8.80;;
5149;SDS011;2593;52.466;13.436;2023-05-20T13:14:50;17.37;;;10.93;;
5149;SDS011;2593;52.466;13.436;2023-05-20T13:17:16;13.80;;;10.00;;
5149;SDS011;2593;52.466;13.436;2023-05-20T13:19:43;17.70;;;9.73;;
5149;SDS011;2593;52.466;13.436;2023-05-20T13:22:11;14.37;;;10.30;;
5149;SDS011;2593;52.466;13.436;2023-05-20T13:24:37;12.90;;;9.90;;
5149;SDS011;2593;52.466;13.436;2023-05-20T13:27:04;17.10;;;9.40;;
5149;SDS011;2593;52.466;13.436;2023-05-20T13:29:30;16.40;;;9.90;;
5149;SDS011;2593;52.466;13.436;2023-05-20T13:31:56;13.97;;;9.73;;
5149;SDS011;2593;52.466;13.436;2023-05-20T13:34:22;14.97;;;8.90;;
5149;SDS011;2593;52.466;13.436;2023-05-20T13:36:48;14.13;;;9.57;;
5149;SDS011;2593;52.466;13.436;2023-05-20T13:39:15;13.70;;;8.97;;
5149;SDS011;2593;52.466;13.436;2023-05-20T13:41:41;11.87;;;9.60;;
5149;SDS011;2593;52.466;13.436;2023-05-20T13:44:07;17.70;;;9.10;;
5149;SDS011;2593;52.466;13.436;2023-05-20T13:46:34;11.83;;;8.90;;
5149;SDS011;2593;52.466;13.436;2023-05-20T13:49:00;11.67;;;8.53;;
5149;SDS011;2593;52.466;13.436;2023-05-20T13:51:26;25.10;;;9.30;;
5149;SDS011;2593;52.466;13.436;2023-05-20T13:53:52;11.83;;;8.57;;
5149;SDS011;2593;52.466;13.436;2023-05-20T13:56:18;13.40;;;9.33;;
5149;SDS011;2593;52.466;13.436;2023-05-20T13:58:45;12.97;;;8.77;;
5149;SDS011;2593;52.466;13.436;2023-05-20T14:01:12;17.63;;;9.80;;
5149;SDS011;2593;52.466;13.436;2023-05-20T14:03:39;15.53;;;10.00;;
5149;SDS011;2593;52.466;13.436;2023-05-20T14:06:06;19.43;;;10.37;;
5149;SDS011;2593;52.466;13.436;2023-05-20T14:08:32;13.17;;;7.93;;
5149;SDS011;2593;52.466;13.436;2023-05-20T14:10:58;10.90;;;8.30;;
5149;SDS011;2593;52.466;13.436;2023-05-20T14:13:24;14.70;;;8.77;;
5149;SDS011;2593;52.466;13.436;2023-05-20T14:15:51;14.63;;;9.73;;
5149;SDS011;2593;52.466;13.436;2023-05-20T14:18:18;15.50;;;9.27;;
5149;SDS011;2593;52.466;13.436;2023-05-20T14:20:45;14.07;;;9.00;;
5149;SDS011;2593;52.466;13.436;2023-05-20T14:23:11;9.50;;;8.13;;
5149;SDS011;2593;52.466;13.436;2023-05-20T14:25:37;15.40;;;9.03;;
5149;SDS011;2593;52.466;13.436;2023-05-20T14:28:04;8.70;;;7.60;;
5149;SDS011;2593;52.466;13.436;2023-05-20T14:30:30;15.97;;;8.57;;
5149;SDS011;2593;52.466;13.436;2023-05-20T14:32:56;17.57;;;8.87;;
5149;SDS011;2593;52.466;13.436;2023-05-20T14:35:22;13.73;;;8.17;;
5149;SDS011;2593;52.466;13.436;2023-05-20T14:37:48;10.27;;;8.40;;
5149;SDS011;2593;52.466;13.436;2023-05-20T14:40:14;12.57;;;8.43;;
5149;SDS011;2593;52.466;13.436;2023-05-20T14:42:40;17.83;;;8.73;;
5149;SDS011;2593;52.466;13.436;2023-05-20T14:45:06;8.83;;;7.73;;
5149;SDS011;2593;52.466;13.436;2023-05-20T14:47:33;9.90;;;7.27;;
5149;SDS011;2593;52.466;13.436;2023-05-20T14:49:59;10.43;;;7.90;;
5149;SDS011;2593;52.466;13.436;2023-05-20T14:52:25;11.10;;;8.60;;
5149;SDS011;2593;52.466;13.436;2023-05-20T14:54:51;8.73;;;7.10;;